Etusivu
METAR-TAF:

METAR-TAF

Lentoasemat :

Oslo, Norja

Gardermoenin lentoasema

Leveyspiiri: 60-12N, Pituuspiiri: 011-05E, korkeus merenpinnasta: 208 m

Tämänhetkinen sää

Tämä raportti tehtiin 26 minuuttia sitten, kello 18.20 UTC
Tuuli 6 kn etelästä, vaihdellen kaakon ja etelän/lounaan välillä
Lämpötila 21°C
Kosteus 43%
Ilmanpaine 1018 hPa
Näkyvyys 10 km tai enemmän
ei pilviä alle 1500 m:ssä eikä cumulonimbus-pilviä

METAR: ENGM 221820Z 17006KT 140V200 CAVOK 21/08 Q1018 NOSIG

Aika: 20:46 (18:46 UTC)

Sääennuste

Ennuste voimassa 22. päivästä klo 18 UTC - 23. päivään klo 18 UTC
Tuuli 5 kn eri suunnista
Näkyvyys 10 km tai enemmän
ei pilviä alle 1500 m:ssä eikä cumulonimbus-pilviä
Tulossa
23. päivästä klo 12 UTC - 23. päivään klo 14 UTC
Tuuli 10 kn etelästä

TAF: ENGM 2218/2318 VRB05KT CAVOK BECMG 2312/2314 17010KT

Säähavainnot ja -ennusteet yli 4000 lentoasemalta (METAR- ja TAF-raportit).

Käytössä olevat sääasemat on merkitty karttaan keltaisilla ja punaisilla pisteillä.

Aseta hiiri pisteen päälle nähdäksesi sääaseman nimen.

Klikkaa sitten nähdäksesi säähavainnot ja -ennusteet.

Kartan vaihtaminen: klikkaa mustalla rastilla varustettuja vihreitä pisteitä, niin voit zoomata sisään; viivalla varustettua vihreää pistettä, niin voit zoomata ulos tai vihreitä nuolia, niin pääset viereisille kartoille.


METAR-TAF: